createdAt,value
2023-08-11T00:03:44.618Z,11.24
2023-08-11T00:08:50.165Z,11.23
2023-08-11T00:13:55.298Z,11.22
2023-08-11T00:18:59.922Z,11.24
2023-08-11T00:24:06.992Z,11.25
2023-08-11T00:29:12.591Z,11.19
2023-08-11T00:34:17.328Z,11.15
2023-08-11T00:39:23.460Z,11.15
2023-08-11T00:44:28.333Z,11.18
2023-08-11T00:49:32.545Z,11.14
2023-08-11T00:54:39.070Z,11.16
2023-08-11T00:59:44.061Z,11.19
2023-08-11T01:04:49.347Z,11.19
2023-08-11T01:10:07.848Z,11.18
2023-08-11T01:15:21.926Z,11.14
2023-08-11T01:20:27.408Z,11.09
2023-08-11T01:25:34.630Z,11.05
2023-08-11T01:30:39.422Z,10.96
2023-08-11T01:35:43.711Z,10.87
2023-08-11T01:40:51.405Z,10.78
2023-08-11T01:45:57.973Z,10.71
2023-08-11T01:51:02.409Z,10.58
2023-08-11T01:56:08.552Z,10.52
2023-08-11T02:01:14.364Z,10.51
2023-08-11T02:06:18.718Z,10.44
2023-08-11T02:11:24.319Z,10.39
2023-08-11T02:16:28.610Z,10.40
2023-08-11T02:21:33.061Z,10.42
2023-08-11T02:26:39.432Z,10.43
2023-08-11T02:31:43.588Z,10.44
2023-08-11T02:36:48.382Z,10.44
2023-08-11T02:41:53.929Z,10.45
2023-08-11T02:46:58.495Z,10.44
2023-08-11T02:52:02.860Z,10.41
2023-08-11T02:57:08.903Z,10.34
2023-08-11T03:02:13.146Z,10.31
2023-08-11T03:07:18.464Z,10.26
2023-08-11T03:12:24.237Z,10.23
2023-08-11T03:17:29.618Z,10.20
2023-08-11T03:22:34.078Z,10.19
2023-08-11T03:27:43.860Z,10.19
2023-08-11T03:32:54.535Z,10.19
2023-08-11T03:38:07.628Z,10.20
2023-08-11T03:43:14.187Z,10.21
2023-08-11T03:48:18.758Z,10.23
2023-08-11T03:53:23.906Z,10.26
2023-08-11T03:58:30.964Z,10.31
2023-08-11T04:03:35.659Z,10.33
2023-08-11T04:08:40.051Z,10.38
2023-08-11T04:13:45.770Z,10.44
2023-08-11T04:18:50.002Z,10.52
2023-08-11T04:23:54.625Z,10.64
2023-08-11T04:29:02.797Z,10.75
2023-08-11T04:34:07.547Z,10.88
2023-08-11T04:39:12.180Z,11.02
2023-08-11T04:44:18.479Z,11.19
2023-08-11T04:49:23.113Z,11.35
2023-08-11T04:54:27.736Z,11.52
2023-08-11T04:59:34.657Z,11.69
2023-08-11T05:04:39.955Z,11.89
2023-08-11T05:09:45.162Z,12.09
2023-08-11T05:14:50.900Z,12.28
2023-08-11T05:19:55.262Z,12.51
2023-08-11T05:24:59.674Z,12.69
2023-08-11T05:30:09.554Z,12.93
2023-08-11T05:35:14.663Z,13.17
2023-08-11T05:40:19.014Z,13.39
2023-08-11T05:45:24.779Z,13.65
2023-08-11T05:50:28.932Z,13.89
2023-08-11T05:55:33.286Z,14.16
2023-08-11T06:00:39.243Z,14.39
2023-08-11T06:05:43.899Z,14.66
2023-08-11T06:10:48.239Z,14.95
2023-08-11T06:15:54.216Z,15.22
2023-08-11T06:20:58.805Z,15.52
2023-08-11T06:26:03.509Z,15.80
2023-08-11T06:31:11.745Z,16.11
2023-08-11T06:36:16.450Z,16.49
2023-08-11T06:41:20.905Z,16.90
2023-08-11T06:46:26.628Z,17.39
2023-08-11T06:51:30.862Z,17.76
2023-08-11T06:56:35.890Z,18.02
2023-08-11T07:01:42.230Z,17.94
2023-08-11T07:06:47.173Z,17.81
2023-08-11T07:11:51.316Z,17.76
2023-08-11T07:16:56.851Z,18.01
2023-08-11T07:22:01.059Z,18.20
2023-08-11T07:27:05.788Z,18.46
2023-08-11T07:32:12.594Z,18.63
2023-08-11T07:37:17.128Z,18.89
2023-08-11T07:42:21.363Z,19.03
2023-08-11T07:47:28.206Z,19.09
2023-08-11T07:52:32.835Z,19.22
2023-08-11T07:57:37.423Z,19.42
2023-08-11T08:02:43.203Z,19.53
2023-08-11T08:07:48.308Z,19.59
2023-08-11T08:12:53.432Z,19.86
2023-08-11T08:17:59.341Z,19.92
2023-08-11T08:23:04.387Z,20.15
2023-08-11T08:28:09.195Z,20.24
2023-08-11T08:33:14.818Z,20.26
2023-08-11T08:38:19.123Z,20.46
2023-08-11T08:43:23.679Z,20.45
2023-08-11T08:48:40.977Z,20.65
2023-08-11T08:53:45.804Z,20.80
2023-08-11T08:58:50.326Z,20.90
2023-08-11T09:03:56.355Z,20.87
2023-08-11T09:09:01.296Z,20.99
2023-08-11T09:14:05.788Z,21.16
2023-08-11T09:19:14.433Z,21.42
2023-08-11T09:24:18.607Z,21.49
2023-08-11T09:29:22.990Z,21.53
2023-08-11T09:34:29.081Z,21.73
2023-08-11T09:39:33.921Z,21.78
2023-08-11T09:44:40.086Z,21.78
2023-08-11T09:49:45.631Z,22.00
2023-08-11T09:54:52.293Z,22.03
2023-08-11T09:59:59.120Z,22.31
2023-08-11T10:05:09.477Z,22.45
2023-08-11T10:10:18.695Z,22.66
2023-08-11T10:15:27.953Z,23.14
2023-08-11T10:20:34.789Z,23.29
2023-08-11T10:25:39.873Z,23.46
2023-08-11T10:30:44.363Z,23.24
2023-08-11T10:35:54.653Z,22.86
2023-08-11T10:41:02.520Z,23.02
2023-08-11T10:46:25.439Z,23.52
2023-08-11T10:51:35.243Z,23.79
2023-08-11T10:56:42.162Z,23.86
2023-08-11T11:01:51.799Z,23.82
2023-08-11T11:07:05.049Z,24.20
2023-08-11T11:12:10.147Z,24.63
2023-08-11T11:17:16.115Z,24.22
2023-08-11T11:22:23.055Z,24.66
2023-08-11T11:27:27.598Z,24.82
2023-08-11T11:32:31.810Z,24.74
2023-08-11T11:37:39.057Z,24.71
2023-08-11T11:42:44.127Z,25.35
2023-08-11T11:47:48.890Z,25.54
2023-08-11T11:52:55.630Z,25.78
2023-08-11T11:58:00.211Z,25.39
2023-08-11T12:03:06.220Z,25.60
2023-08-11T12:08:29.547Z,25.74
2023-08-11T12:13:33.986Z,25.65
2023-08-11T12:18:39.942Z,25.97
2023-08-11T12:23:45.407Z,25.70
2023-08-11T12:28:49.808Z,26.01
2023-08-11T12:33:54.242Z,26.31
2023-08-11T12:39:00.196Z,25.88
2023-08-11T12:44:04.615Z,26.46
2023-08-11T12:49:10.690Z,27.06
2023-08-11T12:54:18.389Z,27.28
2023-08-11T12:59:22.902Z,28.09
2023-08-11T13:04:27.212Z,28.23
2023-08-11T13:09:32.871Z,28.03
2023-08-11T13:14:37.102Z,28.56
2023-08-11T13:19:41.685Z,28.25
2023-08-11T13:24:47.670Z,28.79
2023-08-11T13:29:52.690Z,28.02
2023-08-11T13:34:57.261Z,27.81
2023-08-11T13:40:03.375Z,27.14
2023-08-11T13:45:09.113Z,27.29
2023-08-11T13:50:13.272Z,27.01
2023-08-11T13:55:19.416Z,27.65
2023-08-11T14:00:24.428Z,27.47
2023-08-11T14:05:30.492Z,27.21
2023-08-11T14:10:36.282Z,27.46
2023-08-11T14:15:40.842Z,28.11
2023-08-11T14:20:45.375Z,28.43
2023-08-11T14:25:52.891Z,28.89
2023-08-11T14:30:57.217Z,28.74
2023-08-11T14:36:04.029Z,28.91
2023-08-11T14:41:18.687Z,28.93
2023-08-11T14:46:22.904Z,28.20
2023-08-11T14:51:27.445Z,28.54
2023-08-11T14:56:33.296Z,28.25
2023-08-11T15:01:37.506Z,28.90
2023-08-11T15:06:41.982Z,27.40
2023-08-11T15:11:48.603Z,26.62
2023-08-11T15:16:53.085Z,27.08
2023-08-11T15:21:57.306Z,27.01
2023-08-11T15:27:03.090Z,27.64
2023-08-11T15:32:07.748Z,27.44
2023-08-11T15:37:12.474Z,26.78
2023-08-11T15:42:18.374Z,26.08
2023-08-11T15:47:22.940Z,25.40
2023-08-11T15:52:27.482Z,25.35
2023-08-11T15:57:32.994Z,24.89
2023-08-11T16:02:37.818Z,24.52
2023-08-11T16:07:42.241Z,23.79
2023-08-11T16:12:47.899Z,22.91
2023-08-11T16:17:54.799Z,22.93
2023-08-11T16:22:59.047Z,22.99
2023-08-11T16:28:05.428Z,22.91
2023-08-11T16:33:09.641Z,22.92
2023-08-11T16:38:14.144Z,22.75
2023-08-11T16:43:20.144Z,22.53
2023-08-11T16:48:24.395Z,22.44
2023-08-11T16:53:28.761Z,21.92
2023-08-11T16:58:34.295Z,21.34
2023-08-11T17:03:38.729Z,21.13
2023-08-11T17:08:43.152Z,20.77
2023-08-11T17:13:49.431Z,20.68
2023-08-11T17:18:53.810Z,20.38
2023-08-11T17:23:57.858Z,20.16
2023-08-11T17:29:03.260Z,19.93
2023-08-11T17:34:07.331Z,19.75
2023-08-11T17:39:12.906Z,19.38
2023-08-11T17:44:18.745Z,19.19
2023-08-11T17:49:23.022Z,18.95
2023-08-11T17:54:27.330Z,18.87
2023-08-11T17:59:32.932Z,18.57
2023-08-11T18:04:36.950Z,18.36
2023-08-11T18:09:41.573Z,18.23
2023-08-11T18:14:55.903Z,18.00
2023-08-11T18:19:59.801Z,17.78
2023-08-11T18:25:03.902Z,17.55
2023-08-11T18:30:10.974Z,17.38
2023-08-11T18:35:14.866Z,17.18
2023-08-11T18:40:18.906Z,17.08
2023-08-11T18:45:25.206Z,16.93
2023-08-11T18:50:29.132Z,16.82
2023-08-11T18:55:33.748Z,16.71
2023-08-11T19:00:40.432Z,16.56
2023-08-11T19:05:44.614Z,16.40
2023-08-11T19:10:49.011Z,16.34
2023-08-11T19:15:54.557Z,16.29
2023-08-11T19:20:59.229Z,16.19
2023-08-11T19:26:03.313Z,16.04
2023-08-11T19:31:08.815Z,15.92
2023-08-11T19:36:12.854Z,15.87
2023-08-11T19:41:16.999Z,15.85
2023-08-11T19:46:22.611Z,15.79
2023-08-11T19:51:27.033Z,15.65
2023-08-11T19:56:32.092Z,15.55
2023-08-11T20:01:37.574Z,15.46
2023-08-11T20:06:41.892Z,15.45
2023-08-11T20:11:45.923Z,15.38
2023-08-11T20:16:52.176Z,15.29
2023-08-11T20:21:56.672Z,15.20
2023-08-11T20:27:01.119Z,15.13
2023-08-11T20:32:07.538Z,15.06
2023-08-11T20:37:11.782Z,15.07
2023-08-11T20:42:16.087Z,14.96
2023-08-11T20:47:21.881Z,14.88
2023-08-11T20:52:26.393Z,14.83
2023-08-11T20:57:30.514Z,14.73
2023-08-11T21:02:35.796Z,14.69
2023-08-11T21:07:39.750Z,14.58
2023-08-11T21:12:43.795Z,14.54
2023-08-11T21:17:49.324Z,14.45
2023-08-11T21:22:53.680Z,14.43
2023-08-11T21:27:57.854Z,14.25
2023-08-11T21:33:03.161Z,14.24
2023-08-11T21:38:07.665Z,14.20
2023-08-11T21:43:14.478Z,14.23
2023-08-11T21:48:21.534Z,14.11
2023-08-11T21:53:25.611Z,14.05
2023-08-11T21:58:29.921Z,13.98
2023-08-11T22:03:35.145Z,13.99
2023-08-11T22:08:39.299Z,13.91
2023-08-11T22:13:43.227Z,13.84
2023-08-11T22:18:48.500Z,13.80
2023-08-11T22:23:52.581Z,13.75
2023-08-11T22:28:56.821Z,13.78
2023-08-11T22:34:02.233Z,13.62
2023-08-11T22:39:06.772Z,13.61
2023-08-11T22:44:10.872Z,13.53
2023-08-11T22:49:16.531Z,13.48
2023-08-11T22:54:20.620Z,13.39
2023-08-11T22:59:24.876Z,13.41
2023-08-11T23:04:30.164Z,13.32
2023-08-11T23:09:34.258Z,13.27
2023-08-11T23:14:38.336Z,13.24
2023-08-11T23:19:43.827Z,13.27
2023-08-11T23:24:48.133Z,13.22
2023-08-11T23:29:52.170Z,13.13
2023-08-11T23:34:57.847Z,13.06
2023-08-11T23:40:01.847Z,13.05
2023-08-11T23:45:07.793Z,13.02
2023-08-11T23:50:13.600Z,12.96
2023-08-11T23:55:17.757Z,12.88
